Terminal Aerodrome Forecast
Issued by NWS Atlanta, GA

Home | Current Version | Previous Version | Text Only | Print | Product List | Glossary On
Versions: 1 2 3 4 5 6 7 8 9 10 11 12 13 14 15 16 17 18 19 20 21 22 23 24 25 26 27 28 29 30 31 32 33 34 35 36 37 38
590
FTUS42 KFFC 171724
TAFATL
TAF
KATL 171724Z 1718/1824 32010KT P6SM FEW250
     FM180000 24004KT P6SM BKN250
     FM180600 21002KT P6SM BKN120
     FM181500 26004KT 6SM -SHRA BR OVC035
     FM182000 22008KT P6SM BKN020=

USA.gov is the U.S. government's official web portal to all federal, state and local government web resources and services.